Time;durP1;ratioP1;P1;durP2;ratioP2;P2;SDS_P1;SDS_P2;PMS_P1;PMS_P2;Temp;Humidity;BMP_temperature;BMP_pressure;BME280_temperature;BME280_humidity;BME280_pressure;Samples;Min_cycle;Max_cycle;Signal;HPM_P1;HPM_P2
2023/06/18 00:02:07;;;;;;;13.95;11.55;;;461.20;2380.80;;;;;;5034696;28;20021;-77
2023/06/18 00:04:33;;;;;;;16.83;11.70;;;461.30;2380.80;;;;;;5035317;28;20477;-76
2023/06/18 00:06:59;;;;;;;17.77;11.10;;;461.30;2380.80;;;;;;5034735;28;20481;-78
2023/06/18 00:09:25;;;;;;;15.52;12.43;;;461.20;2380.80;;;;;;5036325;28;20029;-77
2023/06/18 00:11:51;;;;;;;12.85;10.90;;;461.20;2380.80;;;;;;5035192;28;20025;-78
2023/06/18 00:14:17;;;;;;;12.88;11.15;;;461.30;2380.80;;;;;;5034857;28;20116;-77
2023/06/18 00:16:43;;;;;;;14.30;11.32;;;461.30;2380.80;;;;;;5035152;28;20492;-77
2023/06/18 00:19:09;;;;;;;12.57;10.75;;;461.30;2380.80;;;;;;5034476;28;20026;-77
2023/06/18 00:21:35;;;;;;;16.77;11.68;;;461.20;2380.80;;;;;;5035072;28;20080;-76
2023/06/18 00:24:01;;;;;;;15.43;11.10;;;461.10;2380.80;;;;;;5034933;28;20030;-78
2023/06/18 00:26:28;;;;;;;11.70;10.45;;;461.20;2380.80;;;;;;5035873;28;20029;-77
2023/06/18 00:28:54;;;;;;;15.27;11.18;;;461.20;2380.80;;;;;;5034614;28;20033;-77
2023/06/18 00:31:20;;;;;;;14.73;10.90;;;461.20;2380.80;;;;;;5035946;28;20021;-77
2023/06/18 00:33:46;;;;;;;12.20;10.93;;;461.20;2380.80;;;;;;5034594;28;20029;-77
2023/06/18 00:36:12;;;;;;;14.27;11.73;;;461.20;2380.80;;;;;;5034849;28;20393;-77
2023/06/18 00:38:45;;;;;;;15.00;11.05;;;461.10;2380.80;;;;;;5034783;28;20027;-76
2023/06/18 00:41:11;;;;;;;14.50;12.65;;;461.10;2380.80;;;;;;5034429;28;20037;-77
2023/06/18 00:43:38;;;;;;;18.63;12.85;;;460.90;2380.80;;;;;;5034652;28;20037;-76
2023/06/18 00:46:05;;;;;;;15.57;10.85;;;461.00;2380.80;;;;;;5034478;28;20535;-77
2023/06/18 00:48:32;;;;;;;16.10;11.50;;;461.00;2380.80;;;;;;5034311;28;20025;-78
2023/06/18 00:51:01;;;;;;;15.32;12.45;;;460.90;2380.80;;;;;;5034546;28;20119;-78
2023/06/18 00:53:28;;;;;;;18.65;11.57;;;461.00;2380.80;;;;;;5034450;28;20064;-80
2023/06/18 00:55:54;;;;;;;16.80;11.35;;;461.00;2380.80;;;;;;5034111;28;20033;-76
2023/06/18 00:58:23;;;;;;;17.88;11.65;;;461.00;2380.80;;;;;;5050894;28;20029;-78
2023/06/18 01:00:50;;;;;;;14.48;10.88;;;461.00;2380.80;;;;;;5034407;28;20453;-77
2023/06/18 01:03:18;;;;;;;13.85;11.65;;;460.90;2380.80;;;;;;5035291;28;20032;-78
2023/06/18 01:05:47;;;;;;;18.00;12.18;;;460.90;2380.80;;;;;;5033853;28;20076;-77
2023/06/18 01:08:13;;;;;;;15.70;11.43;;;460.90;2380.80;;;;;;5033941;28;20186;-77
2023/06/18 01:10:41;;;;;;;14.82;13.18;;;460.90;2380.80;;;;;;5033784;28;20065;-77
2023/06/18 01:13:14;;;;;;;14.50;12.57;;;460.90;2380.80;;;;;;5032822;28;20357;-78
2023/06/18 01:15:41;;;;;;;13.15;10.55;;;460.90;2380.80;;;;;;5035104;28;20029;-78
2023/06/18 01:18:07;;;;;;;13.02;9.35;;;460.90;2380.80;;;;;;5034952;28;20421;-78
2023/06/18 01:20:44;;;;;;;13.73;9.55;;;460.90;2380.80;;;;;;5033913;28;20026;-78
2023/06/18 01:23:29;;;;;;;12.45;8.55;;;460.90;2380.80;;;;;;5033616;28;20027;-79
2023/06/18 01:25:59;;;;;;;13.80;8.00;;;460.90;2380.80;;;;;;5033725;28;20040;-77
2023/06/18 01:28:29;;;;;;;8.65;7.32;;;460.90;2380.80;;;;;;5033819;28;20042;-76
2023/06/18 01:30:55;;;;;;;9.68;7.40;;;461.00;2380.80;;;;;;5034981;28;20021;-75
2023/06/18 01:33:21;;;;;;;10.57;7.82;;;461.00;2380.80;;;;;;5033705;28;20040;-77
2023/06/18 01:35:48;;;;;;;8.98;7.25;;;461.10;2380.80;;;;;;5033705;28;20029;-78
2023/06/18 01:38:32;;;;;;;11.90;7.95;;;460.90;2380.80;;;;;;5034496;28;20096;-78
2023/06/18 01:41:07;;;;;;;10.02;7.43;;;461.10;2380.80;;;;;;5034816;28;20021;-76
2023/06/18 01:43:40;;;;;;;11.13;7.85;;;461.10;2380.80;;;;;;5033314;28;20025;-77
2023/06/18 01:46:11;;;;;;;11.82;7.82;;;461.10;2380.80;;;;;;5033487;28;20482;-77
2023/06/18 01:48:44;;;;;;;9.80;7.97;;;461.10;2380.80;;;;;;5033472;28;20358;-77
2023/06/18 01:51:12;;;;;;;12.82;8.50;;;461.10;2380.80;;;;;;5033185;28;20263;-76
2023/06/18 01:53:40;;;;;;;12.00;8.45;;;461.10;2380.80;;;;;;5033198;28;20074;-77
2023/06/18 01:56:09;;;;;;;9.77;7.38;;;461.10;2380.80;;;;;;5033212;28;20029;-77
2023/06/18 01:58:36;;;;;;;10.77;8.27;;;461.00;2380.80;;;;;;5032930;28;20036;-79
2023/06/18 02:01:03;;;;;;;9.63;7.72;;;460.90;2380.80;;;;;;5033145;28;20021;-77
2023/06/18 02:03:29;;;;;;;12.70;8.52;;;460.90;2380.80;;;;;;5032626;28;20090;-77
2023/06/18 02:05:55;;;;;;;11.32;8.20;;;460.90;2380.80;;;;;;5032095;28;20545;-78
2023/06/18 02:08:21;;;;;;;13.02;7.88;;;461.60;2380.80;;;;;;5049928;28;20532;-76
2023/06/18 02:10:47;;;;;;;12.52;8.45;;;461.00;2380.80;;;;;;5034327;28;20022;-77
2023/06/18 02:13:13;;;;;;;12.63;8.90;;;460.90;2380.80;;;;;;5032679;28;20026;-76
2023/06/18 02:15:41;;;;;;;9.70;8.43;;;460.90;2380.80;;;;;;5049481;28;20030;-76
2023/06/18 02:18:08;;;;;;;12.93;8.50;;;461.00;2380.80;;;;;;5033846;28;20461;-77
2023/06/18 02:20:35;;;;;;;17.60;8.80;;;461.00;2380.80;;;;;;5049361;28;20025;-76
2023/06/18 02:23:00;;;;;;;12.77;8.32;;;460.90;2380.80;;;;;;5034212;28;20029;-79
2023/06/18 02:25:29;;;;;;;13.65;9.70;;;460.90;2380.80;;;;;;5033290;28;20092;-77
2023/06/18 02:28:02;;;;;;;12.77;8.02;;;460.90;2380.80;;;;;;5034576;28;20029;-76
2023/06/18 02:30:29;;;;;;;11.23;8.23;;;460.90;2380.80;;;;;;5073461;28;20053;-76
2023/06/18 02:32:55;;;;;;;11.90;8.73;;;460.90;2380.80;;;;;;5040253;28;20033;-77
2023/06/18 02:35:21;;;;;;;10.52;7.63;;;460.90;2380.80;;;;;;5051689;28;20099;-77
2023/06/18 02:37:47;;;;;;;9.55;8.32;;;460.90;2380.80;;;;;;5052558;28;20474;-77
2023/06/18 02:40:14;;;;;;;10.40;7.60;;;460.80;2380.80;;;;;;5052389;28;20405;-76
2023/06/18 02:42:47;;;;;;;14.45;7.75;;;460.80;2380.80;;;;;;5052365;28;20036;-79
2023/06/18 02:45:21;;;;;;;10.23;6.75;;;460.90;2380.80;;;;;;5052270;28;20033;-77
2023/06/18 02:47:48;;;;;;;8.63;7.57;;;460.90;2380.80;;;;;;5053363;28;20029;-78
2023/06/18 02:50:16;;;;;;;8.98;6.95;;;460.90;2380.80;;;;;;5052238;28;20112;-77
2023/06/18 02:52:42;;;;;;;12.52;7.13;;;460.80;2380.80;;;;;;5053333;28;20025;-77
2023/06/18 02:55:09;;;;;;;9.32;6.47;;;460.80;2380.80;;;;;;5044956;28;20021;-77
2023/06/18 02:57:36;;;;;;;11.02;6.45;;;460.90;2380.80;;;;;;5032273;28;20030;-77
2023/06/18 03:00:11;;;;;;;10.23;6.65;;;460.90;2380.80;;;;;;5031914;28;20035;-78
2023/06/18 03:02:38;;;;;;;10.05;7.57;;;460.90;2380.80;;;;;;5033392;28;20029;-78
2023/06/18 03:05:04;;;;;;;11.02;6.50;;;460.90;2380.80;;;;;;5068202;28;20041;-80
2023/06/18 03:07:31;;;;;;;9.80;5.97;;;460.90;2380.80;;;;;;5067773;28;20091;-77
2023/06/18 03:09:57;;;;;;;8.32;6.30;;;460.90;2380.80;;;;;;5068483;28;20029;-79
2023/06/18 03:12:24;;;;;;;8.40;5.93;;;460.90;2380.80;;;;;;5068699;28;20024;-78
2023/06/18 03:14:50;;;;;;;7.32;6.00;;;460.90;2380.80;;;;;;5068365;28;20051;-79
2023/06/18 03:17:16;;;;;;;6.60;5.60;;;460.90;2380.80;;;;;;5053081;28;20029;-78
2023/06/18 03:19:42;;;;;;;8.13;5.80;;;460.90;2380.80;;;;;;5053230;28;20436;-79
2023/06/18 03:22:07;;;;;;;7.30;5.45;;;460.90;2380.80;;;;;;5052866;28;20043;-79
2023/06/18 03:24:34;;;;;;;8.32;6.05;;;460.90;2380.80;;;;;;5068629;28;20483;-78
2023/06/18 03:27:00;;;;;;;7.93;6.35;;;460.90;2380.80;;;;;;5068507;28;20430;-77
2023/06/18 03:29:28;;;;;;;11.70;5.65;;;460.90;2380.80;;;;;;5068326;28;20029;-76
2023/06/18 03:31:55;;;;;;;7.55;5.30;;;460.90;2380.80;;;;;;5068464;28;20033;-79
2023/06/18 03:34:22;;;;;;;7.82;5.70;;;460.90;2380.80;;;;;;5068773;28;20025;-78
2023/06/18 03:36:48;;;;;;;8.73;6.32;;;460.90;2380.80;;;;;;5054125;28;20025;-78
2023/06/18 03:39:18;;;;;;;9.80;5.93;;;460.90;2380.80;;;;;;5072206;28;20025;-77
2023/06/18 03:41:44;;;;;;;10.13;6.03;;;460.90;2380.80;;;;;;5072367;28;20120;-78
2023/06/18 03:44:10;;;;;;;10.23;5.55;;;460.90;2380.80;;;;;;5071886;28;20112;-77
2023/06/18 03:46:36;;;;;;;9.55;6.10;;;460.90;2380.80;;;;;;5072124;28;20029;-76
2023/06/18 03:49:03;;;;;;;8.70;5.78;;;461.00;2380.80;;;;;;5056743;28;20040;-77
2023/06/18 03:51:29;;;;;;;7.38;5.25;;;461.00;2380.80;;;;;;5056768;28;20550;-78
2023/06/18 03:53:55;;;;;;;7.47;5.43;;;461.00;2380.80;;;;;;5072004;28;20033;-77
2023/06/18 03:56:24;;;;;;;7.97;5.90;;;460.90;2380.80;;;;;;5071906;28;20090;-77
2023/06/18 03:58:50;;;;;;;9.40;5.80;;;460.90;2380.80;;;;;;5071917;28;20025;-78
2023/06/18 04:01:16;;;;;;;10.10;5.75;;;460.90;2380.80;;;;;;5056305;28;20025;-79
2023/06/18 04:03:42;;;;;;;8.35;5.35;;;460.90;2380.80;;;;;;5055970;28;20036;-78
2023/06/18 04:06:08;;;;;;;7.55;5.20;;;460.90;2380.80;;;;;;5056299;28;20163;-79
2023/06/18 04:08:34;;;;;;;7.30;5.50;;;461.00;2380.80;;;;;;5071810;28;20025;-77
2023/06/18 04:11:01;;;;;;;10.77;6.85;;;460.80;2380.80;;;;;;5071565;28;20025;-78
2023/06/18 04:13:28;;;;;;;8.02;5.35;;;461.00;2380.80;;;;;;5071711;28;20498;-79
2023/06/18 04:15:54;;;;;;;7.18;5.47;;;461.10;2380.80;;;;;;5071664;28;20179;-79
2023/06/18 04:18:20;;;;;;;7.00;4.80;;;461.10;2380.80;;;;;;5071262;28;20033;-76
2023/06/18 04:20:46;;;;;;;11.75;5.68;;;461.10;2380.80;;;;;;5071585;28;20032;-78
2023/06/18 04:23:13;;;;;;;5.93;5.00;;;461.10;2380.80;;;;;;5056150;28;20025;-76
2023/06/18 04:25:39;;;;;;;7.78;5.55;;;460.90;2380.80;;;;;;5071156;28;20036;-79
2023/06/18 04:28:05;;;;;;;7.88;5.40;;;461.20;2380.80;;;;;;5071550;28;20041;-78
2023/06/18 04:30:31;;;;;;;7.45;4.78;;;461.30;2380.80;;;;;;5071442;28;20465;-79
2023/06/18 04:32:57;;;;;;;8.98;5.22;;;461.30;2380.80;;;;;;5071072;28;20064;-79
2023/06/18 04:35:23;;;;;;;9.15;6.00;;;461.30;2380.80;;;;;;5071356;28;20166;-79
2023/06/18 04:37:49;;;;;;;9.90;5.75;;;461.30;2380.80;;;;;;5071385;28;20113;-79
2023/06/18 04:40:15;;;;;;;7.55;5.53;;;461.20;2380.80;;;;;;5070618;28;20021;-80
2023/06/18 04:42:41;;;;;;;10.52;5.68;;;461.20;2380.80;;;;;;5071391;28;20382;-79
2023/06/18 04:45:09;;;;;;;10.02;6.43;;;461.40;2380.80;;;;;;5070866;28;20063;-80
2023/06/18 04:47:35;;;;;;;6.90;5.93;;;461.40;2380.80;;;;;;5070503;28;20037;-78
2023/06/18 04:50:02;;;;;;;7.15;5.47;;;461.40;2380.80;;;;;;5055679;28;20025;-79
2023/06/18 04:52:28;;;;;;;10.40;5.75;;;461.40;2380.80;;;;;;5070805;28;20048;-78
2023/06/18 04:54:53;;;;;;;9.98;5.88;;;461.40;2380.80;;;;;;5071108;28;20032;-77
2023/06/18 04:57:19;;;;;;;9.43;5.93;;;461.40;2380.80;;;;;;5070821;28;20473;-79
2023/06/18 04:59:45;;;;;;;6.28;4.93;;;461.40;2380.80;;;;;;5070610;28;20445;-79
2023/06/18 05:02:11;;;;;;;6.95;5.32;;;461.40;2380.80;;;;;;5070845;28;20032;-79
2023/06/18 05:04:36;;;;;;;7.60;5.25;;;461.40;2380.80;;;;;;5070831;28;20074;-78
2023/06/18 05:07:03;;;;;;;9.27;5.78;;;461.40;2380.80;;;;;;5070237;28;20075;-80
2023/06/18 05:09:30;;;;;;;6.90;5.10;;;461.40;2380.80;;;;;;5055336;28;20025;-79
2023/06/18 05:11:56;;;;;;;8.98;5.10;;;461.40;2380.80;;;;;;5070673;28;20024;-79
2023/06/18 05:14:21;;;;;;;8.98;5.63;;;486.40;2380.80;;;;;;5070274;28;20385;-78
2023/06/18 05:16:47;;;;;;;8.52;4.93;;;461.40;2380.80;;;;;;5070626;28;20036;-78
2023/06/18 05:19:13;;;;;;;7.43;5.25;;;461.40;2380.80;;;;;;5070535;28;20025;-79
2023/06/18 05:21:39;;;;;;;7.82;4.93;;;461.40;2380.80;;;;;;5070227;28;20519;-78
2023/06/18 05:24:07;;;;;;;8.60;5.00;;;461.50;2380.80;;;;;;5070417;28;20112;-80
2023/06/18 05:26:33;;;;;;;6.30;5.20;;;461.50;2380.80;;;;;;5054986;28;20028;-78
2023/06/18 05:28:59;;;;;;;11.52;5.03;;;461.60;2380.80;;;;;;5054730;28;20029;-79
2023/06/18 05:31:25;;;;;;;7.50;5.32;;;461.60;2380.80;;;;;;5070206;28;20116;-80
2023/06/18 05:33:50;;;;;;;9.30;5.15;;;461.70;2380.80;;;;;;5070402;28;20036;-78
2023/06/18 05:36:16;;;;;;;6.95;5.00;;;461.70;2380.80;;;;;;5069903;28;20477;-81
2023/06/18 05:38:42;;;;;;;8.30;5.18;;;461.70;2380.80;;;;;;5070143;28;20033;-81
2023/06/18 05:41:08;;;;;;;8.15;5.53;;;461.70;2380.80;;;;;;5069843;28;20025;-79
2023/06/18 05:43:34;;;;;;;6.40;5.38;;;486.40;2380.80;;;;;;5070038;28;20028;-79
2023/06/18 05:45:59;;;;;;;8.18;5.53;;;486.40;2380.80;;;;;;5069960;28;20033;-79
2023/06/18 05:48:26;;;;;;;7.95;5.13;;;486.40;2380.80;;;;;;5069630;28;20028;-79
2023/06/18 05:50:51;;;;;;;8.05;5.10;;;486.40;2380.80;;;;;;5054287;28;20035;-78
2023/06/18 05:53:17;;;;;;;7.03;5.13;;;486.40;2380.80;;;;;;5069916;28;20025;-78
2023/06/18 05:55:43;;;;;;;7.50;5.05;;;486.40;2380.80;;;;;;5071897;28;20040;-78
2023/06/18 05:58:09;;;;;;;5.68;4.85;;;486.50;2380.80;;;;;;5078935;28;20076;-77
2023/06/18 06:00:35;;;;;;;7.93;5.40;;;486.50;2380.80;;;;;;5070960;28;20075;-80
2023/06/18 06:03:01;;;;;;;6.90;4.63;;;486.50;2380.80;;;;;;5053100;28;20041;-80
2023/06/18 06:05:27;;;;;;;5.97;4.80;;;486.60;2380.80;;;;;;5053889;28;20091;-81
2023/06/18 06:07:52;;;;;;;6.10;5.05;;;486.60;2380.80;;;;;;5053195;28;20052;-83
2023/06/18 06:10:19;;;;;;;6.97;5.00;;;486.60;2380.80;;;;;;5052736;28;20029;-82
2023/06/18 06:12:45;;;;;;;7.82;5.25;;;486.70;2380.80;;;;;;5053068;28;20079;-81
2023/06/18 06:15:11;;;;;;;8.13;5.45;;;486.70;2380.80;;;;;;5052568;28;20397;-81
2023/06/18 06:17:37;;;;;;;10.45;5.90;;;486.70;2380.80;;;;;;5052784;28;20021;-82
2023/06/18 06:20:04;;;;;;;8.88;5.88;;;486.70;2380.80;;;;;;5053034;28;20021;-82
2023/06/18 06:22:30;;;;;;;9.73;5.35;;;486.80;2380.80;;;;;;5052825;28;20127;-82
2023/06/18 06:24:56;;;;;;;6.63;5.25;;;486.80;2380.80;;;;;;5053732;28;20147;-82
2023/06/18 06:27:21;;;;;;;8.57;6.32;;;486.90;2380.80;;;;;;5053666;28;20047;-82
2023/06/18 06:29:47;;;;;;;7.53;5.25;;;486.90;2380.80;;;;;;5053914;28;20101;-81
2023/06/18 06:32:13;;;;;;;6.72;5.63;;;487.00;2380.80;;;;;;5052418;28;20032;-81
2023/06/18 06:34:39;;;;;;;7.93;5.25;;;487.10;2380.80;;;;;;5053975;28;20021;-82
2023/06/18 06:37:05;;;;;;;6.25;4.88;;;487.10;2380.80;;;;;;5052303;28;20028;-82
2023/06/18 06:39:30;;;;;;;7.75;5.43;;;487.10;2380.80;;;;;;5052564;28;20465;-82
2023/06/18 06:41:56;;;;;;;7.15;4.88;;;487.20;2380.80;;;;;;5052502;28;20051;-81
2023/06/18 06:44:22;;;;;;;5.63;4.63;;;487.20;2380.80;;;;;;5052143;28;20032;-82
2023/06/18 06:46:48;;;;;;;6.60;5.13;;;487.30;2380.80;;;;;;5052253;28;20029;-82
2023/06/18 06:49:13;;;;;;;6.88;4.80;;;512.00;2380.80;;;;;;5053624;28;20108;-80
2023/06/18 06:51:39;;;;;;;6.78;5.10;;;512.10;2380.80;;;;;;5051928;28;20052;-81
2023/06/18 06:54:05;;;;;;;7.55;5.47;;;512.10;2380.80;;;;;;5052338;28;20086;-82
2023/06/18 06:56:32;;;;;;;11.45;5.10;;;512.10;2380.80;;;;;;5051967;28;20033;-81
2023/06/18 06:58:58;;;;;;;7.70;5.40;;;512.10;2380.80;;;;;;5051951;28;20029;-81
2023/06/18 07:01:24;;;;;;;7.82;5.05;;;512.20;2380.80;;;;;;5052139;28;20481;-80
2023/06/18 07:03:50;;;;;;;9.30;4.72;;;512.30;2380.80;;;;;;5047426;28;20034;-81
2023/06/18 07:06:16;;;;;;;7.55;4.53;;;512.30;2380.80;;;;;;5033195;28;20050;-81
2023/06/18 07:08:42;;;;;;;8.15;5.95;;;512.30;2380.80;;;;;;5033544;28;20033;-79
2023/06/18 07:11:08;;;;;;;8.32;5.70;;;512.30;2380.80;;;;;;5034036;28;20025;-80
2023/06/18 07:13:34;;;;;;;7.50;4.95;;;512.40;2380.80;;;;;;5036064;28;20038;-80
2023/06/18 07:16:00;;;;;;;11.20;5.35;;;512.40;2380.80;;;;;;5036393;28;20029;-79
2023/06/18 07:18:26;;;;;;;6.88;4.85;;;512.40;2380.80;;;;;;5036250;28;20036;-80
2023/06/18 07:20:52;;;;;;;6.90;5.50;;;512.50;2380.80;;;;;;5035982;28;20025;-80
2023/06/18 07:23:18;;;;;;;7.97;4.20;;;512.50;2380.80;;;;;;5057000;28;20017;-80
2023/06/18 07:25:44;;;;;;;8.52;5.50;;;512.60;2380.80;;;;;;5055341;28;20380;-81
2023/06/18 07:28:10;;;;;;;9.05;5.13;;;512.70;2380.80;;;;;;5038512;28;20036;-81
2023/06/18 07:30:36;;;;;;;7.82;5.07;;;512.60;2380.80;;;;;;5055257;28;20089;-79
2023/06/18 07:33:01;;;;;;;7.65;5.00;;;512.70;2380.80;;;;;;5055348;28;20024;-79
2023/06/18 07:35:27;;;;;;;7.80;4.78;;;512.70;2380.80;;;;;;5055818;28;20117;-79
2023/06/18 07:37:53;;;;;;;6.57;4.53;;;512.80;2380.80;;;;;;5056809;28;20428;-79
2023/06/18 07:40:19;;;;;;;8.40;5.28;;;512.80;2380.80;;;;;;5056663;28;20033;-80
2023/06/18 07:42:45;;;;;;;5.95;4.85;;;512.90;2380.80;;;;;;5056573;28;20032;-80
2023/06/18 07:45:10;;;;;;;8.88;5.68;;;512.90;2380.80;;;;;;5055524;28;20037;-79
2023/06/18 07:47:36;;;;;;;7.43;5.38;;;537.60;2406.40;;;;;;5055296;28;20120;-81
2023/06/18 07:50:03;;;;;;;6.47;4.97;;;512.90;2380.80;;;;;;5056269;28;20104;-82
2023/06/18 07:52:29;;;;;;;12.85;6.18;;;537.80;2406.40;;;;;;5056386;28;20025;-79
2023/06/18 07:54:55;;;;;;;6.85;5.78;;;537.80;2406.40;;;;;;5054639;28;20025;-82
2023/06/18 07:57:20;;;;;;;11.30;5.68;;;537.90;2406.40;;;;;;5055238;28;20029;-80
2023/06/18 07:59:47;;;;;;;7.30;5.15;;;537.90;2406.40;;;;;;5055358;28;20108;-81
2023/06/18 08:02:13;;;;;;;6.32;4.90;;;537.90;2406.40;;;;;;5054949;28;20070;-79
2023/06/18 08:04:39;;;;;;;6.32;5.22;;;537.90;2406.40;;;;;;5055241;28;20021;-78
2023/06/18 08:07:05;;;;;;;8.00;5.30;;;537.90;2406.40;;;;;;5054820;28;20500;-78
2023/06/18 08:09:31;;;;;;;8.00;5.60;;;537.90;2406.40;;;;;;5054880;28;20021;-79
2023/06/18 08:11:57;;;;;;;6.65;5.05;;;537.90;2406.40;;;;;;5055161;28;20025;-79
2023/06/18 08:14:23;;;;;;;9.82;6.63;;;537.90;2406.40;;;;;;5055074;28;20484;-80
2023/06/18 08:16:49;;;;;;;12.65;10.32;;;538.00;2406.40;;;;;;5054735;28;20031;-78
2023/06/18 08:19:15;;;;;;;11.55;6.47;;;538.00;2406.40;;;;;;5056034;28;20036;-81
2023/06/18 08:21:41;;;;;;;6.03;4.70;;;538.10;2406.40;;;;;;5055084;28;20037;-79
2023/06/18 08:24:07;;;;;;;7.88;5.22;;;538.20;2406.40;;;;;;5053648;28;20029;-82
2023/06/18 08:26:33;;;;;;;8.13;4.85;;;538.20;2406.40;;;;;;5055351;28;20074;-80
2023/06/18 08:28:59;;;;;;;7.10;4.88;;;538.10;2406.40;;;;;;5052797;28;20025;-81
2023/06/18 08:31:25;;;;;;;8.30;4.82;;;538.30;2406.40;;;;;;5053494;28;20083;-82
2023/06/18 08:33:51;;;;;;;6.68;4.90;;;538.40;2406.40;;;;;;5054632;28;20116;-82
2023/06/18 08:36:20;;;;;;;8.73;6.07;;;538.40;2406.40;;;;;;5054191;28;20461;-81
2023/06/18 08:38:46;;;;;;;9.85;5.80;;;538.50;2406.40;;;;;;5054370;28;20029;-81
2023/06/18 08:41:12;;;;;;;9.18;5.88;;;538.50;2406.40;;;;;;5054592;28;20172;-82
2023/06/18 08:43:38;;;;;;;7.53;5.07;;;563.30;2432.00;;;;;;5053804;28;20048;-81
2023/06/18 08:46:10;;;;;;;9.82;5.40;;;563.40;2432.00;;;;;;5055475;28;20036;-81
2023/06/18 08:48:45;;;;;;;8.38;5.30;;;563.50;2432.00;;;;;;5055584;28;20029;-81
2023/06/18 08:51:11;;;;;;;6.25;4.70;;;563.60;2432.00;;;;;;5055752;28;20025;-81
2023/06/18 08:53:49;;;;;;;8.05;4.97;;;564.00;2432.00;;;;;;5054383;28;20112;-84
2023/06/18 08:56:17;;;;;;;6.85;5.30;;;564.10;2432.00;;;;;;5055664;28;20033;-81
2023/06/18 08:58:52;;;;;;;11.82;9.70;;;589.10;2432.00;;;;;;5053917;28;20029;-81
2023/06/18 09:01:21;;;;;;;6.18;5.18;;;589.00;2432.00;;;;;;5055773;28;20025;-81
2023/06/18 09:03:47;;;;;;;7.03;5.40;;;589.30;2432.00;;;;;;5054083;28;20475;-80
2023/06/18 09:06:14;;;;;;;7.00;5.10;;;589.30;2432.00;;;;;;5054671;28;20056;-84
2023/06/18 09:08:40;;;;;;;8.48;6.70;;;589.40;2432.00;;;;;;5055171;28;20025;-81
2023/06/18 09:11:06;;;;;;;6.63;5.00;;;589.50;2432.00;;;;;;5053541;28;20048;-81
2023/06/18 09:13:33;;;;;;;9.35;6.10;;;589.70;2432.00;;;;;;5055735;28;20460;-85
2023/06/18 09:16:02;;;;;;;12.15;7.82;;;;;;;;;;5053946;28;20048;-82
2023/06/18 09:18:28;;;;;;;9.52;5.25;;;;;;;;;;5055234;28;20028;-83
2023/06/18 09:20:55;;;;;;;7.03;5.13;;;;;;;;;;5055341;28;20102;-83
2023/06/18 09:23:21;;;;;;;24.00;8.27;;;;;;;;;;5053465;28;20430;-82
2023/06/18 09:25:54;;;;;;;6.18;4.50;;;;;;;;;;5054082;28;20029;-81
2023/06/18 09:28:21;;;;;;;6.40;5.13;;;;;;;;;;5053749;28;20024;-81
2023/06/18 09:31:00;;;;;;;9.02;5.82;;;;;;;;;;5053927;28;20095;-82
2023/06/18 09:33:29;;;;;;;10.68;5.05;;;;;;;;;;5065847;28;20044;-80
2023/06/18 09:35:59;;;;;;;6.82;4.82;;;;;;;;;;5069446;28;20396;-80
2023/06/18 09:38:33;;;;;;;5.60;4.40;;;;;;;;;;5053312;28;20025;-81
2023/06/18 09:40:59;;;;;;;10.23;4.57;;;;;;;;;;5052709;28;20021;-81
2023/06/18 09:43:33;;;;;;;6.65;4.90;;;;;;;;;;5052768;28;20021;-82
2023/06/18 09:45:59;;;;;;;15.48;8.90;;;;;;;;;;5052531;28;20021;-80
2023/06/18 09:48:26;;;;;;;7.15;4.95;;;;;;;;;;5052903;28;20055;-80
2023/06/18 09:50:55;;;;;;;8.65;5.25;;;;;;;;;;5052554;28;20120;-81
2023/06/18 09:53:21;;;;;;;7.63;4.65;;;;;;;;;;5054419;28;20021;-82
2023/06/18 09:55:48;;;;;;;6.30;4.40;;;;;;;;;;5052979;28;20510;-81
2023/06/18 09:58:15;;;;;;;11.25;7.35;;;;;;;;;;5053201;28;20029;-84
2023/06/18 10:00:41;;;;;;;6.50;4.07;;;;;;;;;;5052692;28;20465;-83
2023/06/18 10:03:07;;;;;;;5.57;4.20;;;;;;;;;;5033172;28;20040;-83
2023/06/18 10:05:35;;;;;;;7.50;4.10;;;;;;;;;;5048983;28;20049;-82
2023/06/18 10:08:03;;;;;;;6.50;3.70;;;;;;;;;;5048909;28;20067;-82
2023/06/18 10:10:31;;;;;;;4.82;3.70;;;;;;;;;;5049600;28;20469;-83
2023/06/18 10:13:01;;;;;;;8.57;3.80;;;;;;;;;;5049549;28;20033;-82
2023/06/18 10:15:28;;;;;;;5.20;4.18;;;;;;;;;;5049273;28;20022;-82
2023/06/18 10:17:56;;;;;;;7.78;4.38;;;;;;;;;;5049325;28;20465;-82
2023/06/18 10:20:23;;;;;;;7.65;4.00;;;;;;;;;;5033425;28;20083;-83
2023/06/18 10:22:54;;;;;;;5.82;3.90;;;;;;;;;;5048805;28;20022;-82
2023/06/18 10:25:20;;;;;;;6.00;4.05;;;;;;;;;;5049268;28;20036;-83
2023/06/18 10:27:46;;;;;;;7.05;4.15;;;;;;;;;;5049191;28;20029;-82
2023/06/18 10:30:13;;;;;;;7.97;4.20;;;;;;;;;;5033658;28;20377;-82
2023/06/18 10:32:39;;;;;;;6.78;4.97;;;;;;;;;;5049138;28;20109;-82
2023/06/18 10:35:08;;;;;;;7.53;5.22;;;;;;;;;;5049015;28;20038;-84
2023/06/18 10:37:35;;;;;;;9.73;4.90;;;666.00;2432.00;;;;;;5049415;28;20027;-84
2023/06/18 10:40:02;;;;;;;9.70;4.57;;;665.80;2432.00;;;;;;5034089;28;20025;-81
2023/06/18 10:42:32;;;;;;;7.30;4.43;;;665.60;2432.00;;;;;;5048781;28;20032;-83
2023/06/18 10:45:09;;;;;;;9.82;4.25;;;640.90;2432.00;;;;;;5048810;28;20025;-81
2023/06/18 10:47:36;;;;;;;7.82;4.95;;;640.70;2432.00;;;;;;5049042;28;20026;-82
2023/06/18 10:50:07;;;;;;;9.88;4.30;;;640.60;2432.00;;;;;;5048718;28;20057;-84
2023/06/18 10:52:34;;;;;;;6.50;3.75;;;640.50;2432.00;;;;;;5049089;28;20156;-82
2023/06/18 10:55:07;;;;;;;5.55;4.03;;;640.50;2432.00;;;;;;5033936;28;20025;-81
2023/06/18 10:57:41;;;;;;;9.35;4.47;;;640.70;2432.00;;;;;;5033065;28;20049;-82
2023/06/18 11:00:21;;;;;;;9.85;4.13;;;665.60;2432.00;;;;;;5048880;28;20029;-82
2023/06/18 11:02:51;;;;;;;7.85;3.90;;;665.80;2432.00;;;;;;5034890;28;20445;-82
2023/06/18 11:05:32;;;;;;;10.57;5.85;;;665.80;2432.00;;;;;;5068262;28;20036;-82
2023/06/18 11:08:04;;;;;;;8.55;4.18;;;665.80;2432.00;;;;;;5068911;28;20380;-82
2023/06/18 11:10:36;;;;;;;7.38;4.85;;;665.80;2432.00;;;;;;5053564;28;20376;-83
2023/06/18 11:13:06;;;;;;;7.68;4.50;;;666.10;2432.00;;;;;;5090649;28;20044;-80
2023/06/18 11:15:33;;;;;;;6.70;4.32;;;666.10;2380.80;;;;;;5092442;28;20028;-80
2023/06/18 11:18:01;;;;;;;6.40;3.80;;;666.40;2355.20;;;;;;5091585;28;20046;-82
2023/06/18 11:20:31;;;;;;;7.78;3.50;;;691.60;2278.40;;;;;;5077494;28;20019;-80
2023/06/18 11:22:59;;;;;;;6.68;4.05;;;691.70;2304.00;;;;;;5091879;28;20036;-82
2023/06/18 11:25:26;;;;;;;5.45;4.05;;;691.90;2304.00;;;;;;5091838;28;20017;-80
2023/06/18 11:27:54;;;;;;;6.43;3.90;;;716.80;2304.00;;;;;;5053926;28;20404;-82
2023/06/18 11:30:21;;;;;;;7.28;4.15;;;716.80;2278.40;;;;;;5068775;28;20032;-82
2023/06/18 11:32:47;;;;;;;7.70;3.92;;;716.90;2252.80;;;;;;5067444;28;20029;-80
2023/06/18 11:35:14;;;;;;;6.75;4.22;;;717.10;2304.00;;;;;;5052105;28;20166;-81
2023/06/18 11:37:44;;;;;;;5.57;4.40;;;717.10;2201.60;;;;;;5051804;28;20139;-79
2023/06/18 11:40:11;;;;;;;14.70;4.60;;;691.90;2252.80;;;;;;5051669;28;20025;-81
2023/06/18 11:42:45;;;;;;;4.90;3.90;;;717.00;2252.80;;;;;;5053388;28;20122;-81
2023/06/18 11:45:11;;;;;;;6.63;3.38;;;717.10;2227.20;;;;;;5051717;28;20083;-79
2023/06/18 11:47:43;;;;;;;8.95;5.30;;;717.20;2252.80;;;;;;5052027;28;20427;-80
2023/06/18 11:50:10;;;;;;;10.45;4.25;;;717.30;2252.80;;;;;;5051891;28;20047;-81
2023/06/18 11:52:36;;;;;;;5.03;3.35;;;716.80;2252.80;;;;;;5051989;28;20040;-85
2023/06/18 11:55:04;;;;;;;6.70;3.40;;;716.90;2355.20;;;;;;5051913;28;20120;-80
2023/06/18 11:57:31;;;;;;;7.07;3.60;;;717.10;2227.20;;;;;;5052352;28;20033;-81
2023/06/18 11:59:57;;;;;;;5.35;3.97;;;717.40;2150.40;;;;;;5055249;28;20079;-80
2023/06/18 12:02:29;;;;;;;6.45;3.45;;;717.60;2252.80;;;;;;5055511;28;20477;-80
2023/06/18 12:05:01;;;;;;;5.90;3.65;;;717.70;2227.20;;;;;;5055508;28;20025;-79
2023/06/18 12:07:27;;;;;;;4.32;3.33;;;742.50;2201.60;;;;;;5054743;28;20068;-79
2023/06/18 12:09:55;;;;;;;5.55;3.35;;;742.50;2099.20;;;;;;5055339;28;20029;-80
2023/06/18 12:12:46;;;;;;;5.50;3.58;;;742.40;2099.20;;;;;;5055229;28;20462;-81
2023/06/18 12:15:36;;;;;;;7.57;3.67;;;742.50;2176.00;;;;;;5056329;28;20025;-80
2023/06/18 12:18:14;;;;;;;5.65;3.55;;;742.80;2150.40;;;;;;5055463;28;20116;-83
2023/06/18 12:20:41;;;;;;;5.32;4.05;;;742.80;2124.80;;;;;;5056072;28;20465;-82
2023/06/18 12:23:07;;;;;;;7.90;4.05;;;742.80;1996.80;;;;;;5056406;28;20354;-81
2023/06/18 12:25:34;;;;;;;4.80;3.45;;;742.90;2124.80;;;;;;5056213;28;20037;-79
2023/06/18 12:28:04;;;;;;;5.70;3.42;;;743.00;2073.60;;;;;;5054973;28;20440;-80
2023/06/18 12:30:34;;;;;;;7.50;3.80;;;742.80;2150.40;;;;;;5043952;28;20037;-80